createdAt,value
2018-08-20T00:00:47.325Z,99.70
2018-08-20T00:03:15.911Z,99.90
2018-08-20T00:05:48.450Z,99.90
2018-08-20T00:08:17.755Z,99.90
2018-08-20T00:10:46.148Z,99.90
2018-08-20T00:13:14.512Z,99.90
2018-08-20T00:15:42.763Z,99.90
2018-08-20T00:18:16.764Z,99.90
2018-08-20T00:20:45.160Z,99.90
2018-08-20T00:23:13.497Z,99.90
2018-08-20T00:25:41.867Z,99.90
2018-08-20T00:28:10.080Z,99.90
2018-08-20T00:30:38.972Z,99.90
2018-08-20T00:33:07.807Z,99.90
2018-08-20T00:35:36.059Z,99.90
2018-08-20T00:38:04.346Z,99.90
2018-08-20T00:40:32.741Z,99.90
2018-08-20T00:43:01.126Z,99.90
2018-08-20T00:45:29.366Z,99.90
2018-08-20T00:47:57.714Z,99.90
2018-08-20T00:50:26.035Z,99.90
2018-08-20T00:52:54.360Z,99.90
2018-08-20T00:55:22.985Z,99.90
2018-08-20T00:57:51.835Z,99.90
2018-08-20T01:00:21.290Z,99.90
2018-08-20T01:02:49.628Z,99.90
2018-08-20T01:05:18.040Z,99.90
2018-08-20T01:07:46.349Z,99.90
2018-08-20T01:10:14.823Z,99.90
2018-08-20T01:12:43.138Z,99.90
2018-08-20T01:15:11.512Z,99.90
2018-08-20T01:17:39.820Z,99.90
2018-08-20T01:20:08.401Z,99.90
2018-08-20T01:22:36.761Z,99.90
2018-08-20T01:25:05.125Z,99.90
2018-08-20T01:27:33.455Z,99.90
2018-08-20T01:30:01.657Z,99.90
2018-08-20T01:32:29.952Z,99.90
2018-08-20T01:35:13.793Z,99.90
2018-08-20T01:37:42.268Z,99.90
2018-08-20T01:40:10.649Z,99.90
2018-08-20T01:42:38.912Z,99.90
2018-08-20T01:45:07.206Z,99.90
2018-08-20T01:47:35.530Z,99.90
2018-08-20T01:50:03.858Z,99.90
2018-08-20T01:52:32.201Z,99.90
2018-08-20T01:55:00.512Z,99.90
2018-08-20T01:57:28.898Z,99.90
2018-08-20T01:59:57.263Z,99.90
2018-08-20T02:02:27.102Z,99.90
2018-08-20T02:04:55.430Z,99.90
2018-08-20T02:07:23.694Z,99.90
2018-08-20T02:09:52.175Z,99.90
2018-08-20T02:12:20.466Z,99.90
2018-08-20T02:14:48.844Z,99.90
2018-08-20T02:17:17.207Z,99.90
2018-08-20T02:19:45.544Z,99.90
2018-08-20T02:22:13.859Z,99.90
2018-08-20T02:24:42.255Z,99.90
2018-08-20T02:27:10.529Z,99.90
2018-08-20T02:29:39.207Z,99.90
2018-08-20T02:32:07.602Z,99.90
2018-08-20T02:34:35.906Z,99.90
2018-08-20T02:37:04.256Z,99.90
2018-08-20T02:39:32.686Z,99.90
2018-08-20T02:42:01.121Z,99.90
2018-08-20T02:44:29.638Z,99.90
2018-08-20T02:46:57.961Z,99.90
2018-08-20T02:49:26.503Z,99.90
2018-08-20T02:51:54.811Z,99.90
2018-08-20T02:54:23.248Z,99.90
2018-08-20T02:56:51.662Z,99.90
2018-08-20T02:59:19.972Z,99.90
2018-08-20T03:01:48.290Z,99.90
2018-08-20T03:04:16.669Z,99.90
2018-08-20T03:06:45.041Z,99.90
2018-08-20T03:09:15.106Z,99.90
2018-08-20T03:11:43.805Z,99.90
2018-08-20T03:14:13.265Z,99.90
2018-08-20T03:16:41.549Z,99.90
2018-08-20T03:19:10.722Z,99.90
2018-08-20T03:21:39.092Z,99.90
2018-08-20T03:24:07.409Z,99.90
2018-08-20T03:26:36.077Z,99.90
2018-08-20T03:29:04.457Z,99.90
2018-08-20T03:31:32.769Z,99.90
2018-08-20T03:34:01.225Z,99.90
2018-08-20T03:36:29.733Z,99.90
2018-08-20T03:38:58.260Z,99.90
2018-08-20T03:41:26.704Z,99.90
2018-08-20T03:43:55.068Z,99.90
2018-08-20T03:46:23.454Z,99.90
2018-08-20T03:48:51.901Z,99.90
2018-08-20T03:51:20.447Z,99.90
2018-08-20T03:53:48.741Z,99.90
2018-08-20T03:56:17.269Z,99.90
2018-08-20T03:58:45.760Z,99.90
2018-08-20T04:01:14.127Z,99.90
2018-08-20T04:03:43.261Z,99.90
2018-08-20T04:06:11.646Z,99.90
2018-08-20T04:08:40.038Z,99.90
2018-08-20T04:11:09.053Z,99.90
2018-08-20T04:13:37.446Z,99.90
2018-08-20T04:16:05.745Z,99.90
2018-08-20T04:18:34.061Z,99.90
2018-08-20T04:21:02.387Z,99.90
2018-08-20T04:23:30.990Z,99.90
2018-08-20T04:25:59.354Z,99.90
2018-08-20T04:28:27.685Z,99.90
2018-08-20T04:30:56.177Z,99.90
2018-08-20T04:33:24.491Z,99.90
2018-08-20T04:35:52.764Z,99.90
2018-08-20T04:38:21.037Z,99.90
2018-08-20T04:40:49.422Z,99.90
2018-08-20T04:43:17.842Z,99.90
2018-08-20T04:45:46.240Z,99.90
2018-08-20T04:48:14.554Z,99.90
2018-08-20T04:50:42.919Z,99.90
2018-08-20T04:53:11.223Z,99.90
2018-08-20T04:55:39.692Z,99.90
2018-08-20T04:58:07.987Z,99.90
2018-08-20T05:00:36.247Z,99.90
2018-08-20T05:03:04.672Z,99.90
2018-08-20T05:05:32.979Z,99.90
2018-08-20T05:08:01.699Z,99.90
2018-08-20T05:10:30.003Z,99.90
2018-08-20T05:12:58.410Z,99.90
2018-08-20T05:15:26.796Z,99.90
2018-08-20T05:17:55.377Z,99.90
2018-08-20T05:20:23.618Z,99.90
2018-08-20T05:22:52.196Z,99.90
2018-08-20T05:25:20.618Z,99.90
2018-08-20T05:27:49.032Z,99.90
2018-08-20T05:30:17.350Z,99.90
2018-08-20T05:32:46.024Z,99.90
2018-08-20T05:35:14.211Z,99.90
2018-08-20T05:37:42.589Z,99.90
2018-08-20T05:40:10.790Z,99.90
2018-08-20T05:42:39.033Z,99.90
2018-08-20T05:45:09.493Z,99.90
2018-08-20T05:47:37.705Z,99.90
2018-08-20T05:50:06.275Z,99.90
2018-08-20T05:52:34.526Z,99.90
2018-08-20T05:55:02.662Z,99.80
2018-08-20T05:57:31.136Z,99.40
2018-08-20T05:59:59.502Z,99.50
2018-08-20T06:02:27.769Z,99.40
2018-08-20T06:04:55.979Z,99.20
2018-08-20T06:07:24.246Z,99.40
2018-08-20T06:09:52.525Z,99.70
2018-08-20T06:12:21.716Z,99.10
2018-08-20T06:14:49.892Z,98.60
2018-08-20T06:17:18.085Z,98.30
2018-08-20T06:19:46.249Z,98.00
2018-08-20T06:22:14.430Z,97.70
2018-08-20T06:24:42.586Z,97.70
2018-08-20T06:27:11.047Z,97.40
2018-08-20T06:29:39.205Z,97.10
2018-08-20T06:32:07.405Z,97.00
2018-08-20T06:34:35.586Z,97.40
2018-08-20T06:37:03.768Z,97.60
2018-08-20T06:39:31.938Z,97.40
2018-08-20T06:42:00.146Z,97.70
2018-08-20T06:44:28.319Z,97.80
2018-08-20T06:46:56.519Z,97.50
2018-08-20T06:49:24.693Z,97.30
2018-08-20T06:51:52.839Z,97.10
2018-08-20T06:54:21.026Z,96.80
2018-08-20T06:56:49.158Z,96.40
2018-08-20T06:59:17.321Z,96.50
2018-08-20T07:01:45.497Z,96.00
2018-08-20T07:04:14.042Z,95.80
2018-08-20T07:06:42.249Z,95.70
2018-08-20T07:09:11.386Z,95.70
2018-08-20T07:11:39.587Z,95.60
2018-08-20T07:14:07.736Z,95.80
2018-08-20T07:16:35.893Z,95.60
2018-08-20T07:19:04.045Z,95.30
2018-08-20T07:21:32.661Z,95.10
2018-08-20T07:24:00.866Z,94.90
2018-08-20T07:26:29.060Z,94.60
2018-08-20T07:28:57.302Z,94.40
2018-08-20T07:31:25.507Z,94.40
2018-08-20T07:33:53.721Z,94.70
2018-08-20T07:36:21.916Z,94.20
2018-08-20T07:38:50.183Z,94.40
2018-08-20T07:41:18.590Z,93.70
2018-08-20T07:43:46.822Z,93.50
2018-08-20T07:46:15.129Z,93.20
2018-08-20T07:48:43.578Z,93.40
2018-08-20T07:51:12.058Z,93.20
2018-08-20T07:53:40.568Z,92.90
2018-08-20T07:56:08.721Z,92.90
2018-08-20T07:58:36.915Z,92.90
2018-08-20T08:01:05.063Z,92.60
2018-08-20T08:03:33.253Z,92.10
2018-08-20T08:06:03.274Z,91.90
2018-08-20T08:08:31.493Z,92.10
2018-08-20T08:10:59.633Z,91.90
2018-08-20T08:13:28.250Z,90.90
2018-08-20T08:15:56.481Z,90.20
2018-08-20T08:18:25.073Z,90.40
2018-08-20T08:20:53.209Z,89.60
2018-08-20T08:23:21.389Z,89.40
2018-08-20T08:25:49.566Z,90.00
2018-08-20T08:28:17.684Z,88.10
2018-08-20T08:30:45.841Z,88.50
2018-08-20T08:33:13.999Z,89.80
2018-08-20T08:35:42.150Z,88.30
2018-08-20T08:38:10.421Z,85.50
2018-08-20T08:40:38.453Z,84.60
2018-08-20T08:43:06.652Z,84.70
2018-08-20T08:45:34.782Z,84.00
2018-08-20T08:48:03.012Z,83.40
2018-08-20T08:50:31.161Z,81.60
2018-08-20T08:52:59.331Z,81.60
2018-08-20T08:55:27.501Z,83.00
2018-08-20T08:57:55.680Z,81.70
2018-08-20T09:00:23.880Z,82.00
2018-08-20T09:02:53.180Z,81.50
2018-08-20T09:05:21.342Z,81.80
2018-08-20T09:07:49.502Z,82.10
2018-08-20T09:10:17.637Z,82.20
2018-08-20T09:12:45.789Z,82.70
2018-08-20T09:15:17.406Z,82.80
2018-08-20T09:17:45.889Z,80.90
2018-08-20T09:20:17.764Z,79.20
2018-08-20T09:22:45.897Z,78.00
2018-08-20T09:25:14.765Z,77.90
2018-08-20T09:27:44.567Z,79.10
2018-08-20T09:30:15.377Z,80.00
2018-08-20T09:32:44.117Z,78.00
2018-08-20T09:35:12.258Z,78.70
2018-08-20T09:37:40.562Z,78.20
2018-08-20T09:40:09.621Z,75.90
2018-08-20T09:42:38.517Z,76.90
2018-08-20T09:45:06.957Z,77.50
2018-08-20T09:47:35.616Z,77.10
2018-08-20T09:50:04.255Z,78.00
2018-08-20T09:52:32.375Z,75.60
2018-08-20T09:55:00.634Z,73.70
2018-08-20T09:57:28.774Z,74.70
2018-08-20T09:59:57.977Z,74.10
2018-08-20T10:02:26.465Z,73.90
2018-08-20T10:07:45.580Z,73.40
2018-08-20T10:10:13.782Z,72.90
2018-08-20T10:12:42.148Z,72.40
2018-08-20T10:15:10.305Z,70.30
2018-08-20T10:17:38.409Z,71.50
2018-08-20T10:20:08.231Z,71.80
2018-08-20T10:22:36.367Z,72.20
2018-08-20T10:25:04.709Z,72.30
2018-08-20T10:27:32.836Z,71.20
2018-08-20T10:30:02.204Z,71.40
2018-08-20T10:32:31.231Z,69.60
2018-08-20T10:34:59.424Z,70.00
2018-08-20T10:37:27.575Z,68.50
2018-08-20T10:39:56.823Z,67.10
2018-08-20T10:42:24.974Z,67.70
2018-08-20T10:44:58.365Z,68.60
2018-08-20T10:47:26.513Z,67.40
2018-08-20T10:49:54.695Z,67.60
2018-08-20T10:52:22.878Z,67.50
2018-08-20T10:54:51.008Z,63.50
2018-08-20T10:57:19.186Z,62.70
2018-08-20T10:59:47.345Z,63.10
2018-08-20T11:02:15.506Z,64.20
2018-08-20T11:04:43.625Z,66.60
2018-08-20T11:07:11.765Z,65.50
2018-08-20T11:09:39.877Z,65.80
2018-08-20T11:12:08.070Z,64.80
2018-08-20T11:14:36.181Z,66.10
2018-08-20T11:17:04.322Z,64.30
2018-08-20T11:19:32.442Z,65.00
2018-08-20T11:22:00.613Z,64.30
2018-08-20T11:24:28.870Z,67.90
2018-08-20T11:26:57.194Z,64.00
2018-08-20T11:29:25.333Z,63.20
2018-08-20T11:31:53.526Z,64.50
2018-08-20T11:34:21.718Z,65.30
2018-08-20T11:36:49.970Z,62.90
2018-08-20T11:39:18.112Z,65.20
2018-08-20T11:41:46.242Z,64.50
2018-08-20T11:44:14.415Z,64.80
2018-08-20T11:46:42.644Z,63.60
2018-08-20T11:49:10.838Z,66.50
2018-08-20T11:51:38.941Z,66.30
2018-08-20T11:54:07.113Z,64.10
2018-08-20T11:56:35.241Z,60.80
2018-08-20T11:59:03.450Z,61.10
2018-08-20T12:01:31.765Z,61.70
2018-08-20T12:03:59.893Z,61.50
2018-08-20T12:06:28.054Z,60.50
2018-08-20T12:08:56.227Z,60.40
2018-08-20T12:11:24.377Z,61.60
2018-08-20T12:13:52.537Z,61.80
2018-08-20T12:16:20.658Z,61.30
2018-08-20T12:18:48.781Z,61.90
2018-08-20T12:21:16.913Z,61.20
2018-08-20T12:23:45.117Z,61.80
2018-08-20T12:26:13.248Z,60.40
2018-08-20T12:28:41.377Z,59.70
2018-08-20T12:31:09.494Z,60.40
2018-08-20T12:33:37.682Z,61.00
2018-08-20T12:36:06.940Z,62.40
2018-08-20T12:38:35.619Z,59.90
2018-08-20T12:41:03.730Z,59.10
2018-08-20T12:43:32.078Z,59.30
2018-08-20T12:46:00.766Z,60.40
2018-08-20T12:48:30.028Z,60.30
2018-08-20T12:50:58.148Z,59.60
2018-08-20T12:53:27.921Z,58.40
2018-08-20T12:55:56.611Z,58.50
2018-08-20T12:58:25.109Z,59.10
2018-08-20T13:00:53.354Z,59.80
2018-08-20T13:03:21.469Z,59.00
2018-08-20T13:05:49.573Z,59.80
2018-08-20T13:08:17.707Z,59.30
2018-08-20T13:10:45.838Z,59.80
2018-08-20T13:13:13.981Z,59.70
2018-08-20T13:15:42.146Z,59.50
2018-08-20T13:18:10.277Z,58.20
2018-08-20T13:20:38.438Z,59.40
2018-08-20T13:23:06.960Z,58.10
2018-08-20T13:25:35.057Z,57.40
2018-08-20T13:28:03.183Z,57.70
2018-08-20T13:30:31.328Z,57.20
2018-08-20T13:32:59.490Z,57.50
2018-08-20T13:35:27.686Z,58.10
2018-08-20T13:37:55.833Z,60.10
2018-08-20T13:40:24.090Z,59.30
2018-08-20T13:42:52.294Z,56.70
2018-08-20T13:45:20.466Z,57.20
2018-08-20T13:47:48.595Z,56.70
2018-08-20T13:50:16.769Z,55.40
2018-08-20T13:52:46.301Z,55.90
2018-08-20T13:55:14.911Z,57.00
2018-08-20T13:57:47.101Z,56.70
2018-08-20T14:00:16.923Z,56.60
2018-08-20T14:02:45.141Z,58.30
2018-08-20T14:05:14.121Z,56.90
2018-08-20T14:07:42.374Z,57.20
2018-08-20T14:10:11.388Z,56.70
2018-08-20T14:12:40.319Z,55.40
2018-08-20T14:15:10.129Z,55.60
2018-08-20T14:17:39.126Z,57.00
2018-08-20T14:20:09.254Z,55.70
2018-08-20T14:22:37.395Z,55.50
2018-08-20T14:25:05.579Z,55.40
2018-08-20T14:27:34.136Z,54.80
2018-08-20T14:30:02.313Z,55.20
2018-08-20T14:32:30.786Z,56.70
2018-08-20T14:34:59.622Z,55.80
2018-08-20T14:37:27.876Z,54.40
2018-08-20T14:39:56.051Z,55.00
2018-08-20T14:42:24.271Z,54.70
2018-08-20T14:44:52.474Z,54.40
2018-08-20T14:47:20.638Z,54.40
2018-08-20T14:49:48.808Z,54.10
2018-08-20T14:52:16.955Z,53.80
2018-08-20T14:54:45.134Z,53.90
2018-08-20T14:57:13.274Z,54.90
2018-08-20T14:59:41.417Z,55.50
2018-08-20T15:02:09.576Z,55.50
2018-08-20T15:04:37.713Z,53.90
2018-08-20T15:07:07.820Z,55.30
2018-08-20T15:09:36.033Z,55.30
2018-08-20T15:12:04.396Z,54.80
2018-08-20T15:14:32.538Z,54.90
2018-08-20T15:17:00.705Z,54.60
2018-08-20T15:19:28.859Z,55.40
2018-08-20T15:21:57.069Z,55.00
2018-08-20T15:24:25.295Z,55.10
2018-08-20T15:26:53.441Z,54.90
2018-08-20T15:29:21.590Z,54.90
2018-08-20T15:31:49.734Z,55.60
2018-08-20T15:34:17.845Z,56.50
2018-08-20T15:36:45.968Z,56.90
2018-08-20T15:39:14.172Z,58.40
2018-08-20T15:41:42.279Z,58.70
2018-08-20T15:44:10.975Z,58.90
2018-08-20T15:46:39.131Z,59.50
2018-08-20T15:49:07.266Z,59.70
2018-08-20T15:51:35.659Z,59.90
2018-08-20T15:54:03.819Z,61.20
2018-08-20T15:56:31.968Z,60.60
2018-08-20T15:59:00.130Z,61.40
2018-08-20T16:01:28.294Z,61.70
2018-08-20T16:03:56.477Z,61.20
2018-08-20T16:06:24.641Z,61.30
2018-08-20T16:08:52.837Z,62.30
2018-08-20T16:11:21.071Z,62.40
2018-08-20T16:13:49.237Z,62.20
2018-08-20T16:16:17.373Z,62.20
2018-08-20T16:18:45.522Z,62.10
2018-08-20T16:21:13.644Z,62.60
2018-08-20T16:23:41.810Z,63.10
2018-08-20T16:26:10.034Z,63.20
2018-08-20T16:28:38.157Z,63.30
2018-08-20T16:31:06.525Z,63.70
2018-08-20T16:33:34.673Z,63.70
2018-08-20T16:36:02.833Z,63.80
2018-08-20T16:38:31.007Z,64.20
2018-08-20T16:40:59.190Z,64.10
2018-08-20T16:43:27.328Z,64.50
2018-08-20T16:45:55.614Z,64.90
2018-08-20T16:48:24.073Z,65.20
2018-08-20T16:50:52.363Z,64.80
2018-08-20T16:53:20.849Z,65.00
2018-08-20T16:55:48.984Z,65.50
2018-08-20T16:58:17.158Z,65.80
2018-08-20T17:00:45.289Z,66.10
2018-08-20T17:03:13.453Z,66.70
2018-08-20T17:05:47.577Z,66.80
2018-08-20T17:08:20.266Z,68.10
2018-08-20T17:10:48.389Z,68.00
2018-08-20T17:13:16.539Z,68.30
2018-08-20T17:15:44.683Z,68.60
2018-08-20T17:18:12.853Z,69.10
2018-08-20T17:20:40.984Z,69.20
2018-08-20T17:23:15.996Z,69.70
2018-08-20T17:25:44.270Z,69.80
2018-08-20T17:28:12.397Z,70.00
2018-08-20T17:30:40.510Z,70.50
2018-08-20T17:33:08.775Z,70.60
2018-08-20T17:35:39.130Z,70.70
2018-08-20T17:38:07.285Z,70.80
2018-08-20T17:40:37.189Z,71.20
2018-08-20T17:43:05.730Z,71.40
2018-08-20T17:45:33.923Z,71.70
2018-08-20T17:48:02.118Z,72.10
2018-08-20T17:50:45.026Z,72.20
2018-08-20T17:53:13.151Z,72.80
2018-08-20T17:55:41.363Z,73.30
2018-08-20T17:58:09.710Z,73.40
2018-08-20T18:00:43.470Z,73.70
2018-08-20T18:03:17.040Z,73.70
2018-08-20T18:05:45.254Z,74.10
2018-08-20T18:08:13.373Z,74.50
2018-08-20T18:10:41.485Z,74.30
2018-08-20T18:13:10.411Z,74.30
2018-08-20T18:15:38.524Z,74.60
2018-08-20T18:18:06.673Z,74.10
2018-08-20T18:20:39.467Z,74.90
2018-08-20T18:23:08.576Z,74.90
2018-08-20T18:25:41.789Z,75.60
2018-08-20T18:28:09.939Z,75.70
2018-08-20T18:30:38.046Z,76.70
2018-08-20T18:33:06.189Z,76.40
2018-08-20T18:35:36.266Z,76.70
2018-08-20T18:38:04.574Z,77.00
2018-08-20T18:40:32.960Z,76.50
2018-08-20T18:43:01.373Z,76.80
2018-08-20T18:45:29.506Z,76.80
2018-08-20T18:47:57.709Z,77.70
2018-08-20T18:50:25.923Z,77.40
2018-08-20T18:52:54.175Z,78.50
2018-08-20T18:55:22.349Z,78.30
2018-08-20T18:57:51.017Z,78.90
2018-08-20T19:00:19.156Z,79.10
2018-08-20T19:02:52.828Z,79.20
2018-08-20T19:05:21.401Z,79.20
2018-08-20T19:07:49.552Z,79.80
2018-08-20T19:10:19.230Z,80.10
2018-08-20T19:12:47.392Z,79.80
2018-08-20T19:15:28.100Z,81.10
2018-08-20T19:17:56.389Z,81.20
2018-08-20T19:20:24.531Z,80.90
2018-08-20T19:22:52.700Z,82.20
2018-08-20T19:25:20.880Z,82.50
2018-08-20T19:27:48.983Z,81.50
2018-08-20T19:30:21.877Z,81.90
2018-08-20T19:32:50.072Z,83.00
2018-08-20T19:35:18.222Z,82.50
2018-08-20T19:37:46.433Z,83.30
2018-08-20T19:40:14.700Z,83.90
2018-08-20T19:42:42.821Z,84.80
2018-08-20T19:45:11.962Z,85.40
2018-08-20T19:47:40.120Z,84.70
2018-08-20T19:50:09.874Z,84.90
2018-08-20T19:52:37.992Z,85.00
2018-08-20T19:55:09.796Z,85.30
2018-08-20T19:57:38.029Z,85.40
2018-08-20T20:00:09.384Z,85.50
2018-08-20T20:02:38.210Z,85.90
2018-08-20T20:05:06.818Z,86.30
2018-08-20T20:07:36.635Z,86.90
2018-08-20T20:10:09.137Z,86.90
2018-08-20T20:12:42.446Z,86.90
2018-08-20T20:15:10.575Z,86.80
2018-08-20T20:17:38.805Z,87.60
2018-08-20T20:20:07.001Z,87.70
2018-08-20T20:22:35.169Z,87.90
2018-08-20T20:25:03.437Z,88.70
2018-08-20T20:27:31.598Z,88.70
2018-08-20T20:29:59.726Z,89.30
2018-08-20T20:32:27.882Z,90.00
2018-08-20T20:34:56.030Z,89.70
2018-08-20T20:37:24.162Z,89.70
2018-08-20T20:40:00.518Z,89.30
2018-08-20T20:42:29.285Z,89.30
2018-08-20T20:44:57.602Z,90.10
2018-08-20T20:47:26.475Z,90.20
2018-08-20T20:49:54.864Z,90.30
2018-08-20T20:52:23.113Z,90.10
2018-08-20T20:54:51.245Z,90.20
2018-08-20T20:57:19.393Z,90.50
2018-08-20T20:59:47.517Z,90.70
2018-08-20T21:02:15.630Z,90.90
2018-08-20T21:04:43.806Z,90.80
2018-08-20T21:07:14.102Z,91.30
2018-08-20T21:09:48.336Z,91.20
2018-08-20T21:12:17.345Z,91.20
2018-08-20T21:14:45.482Z,91.50
2018-08-20T21:17:13.594Z,91.80
2018-08-20T21:19:41.715Z,92.00
2018-08-20T21:22:09.881Z,92.40
2018-08-20T21:24:39.205Z,92.40
2018-08-20T21:27:13.600Z,92.50
2018-08-20T21:29:42.317Z,92.60
2018-08-20T21:32:10.632Z,93.10
2018-08-20T21:34:40.968Z,93.40
2018-08-20T21:37:09.685Z,93.60
2018-08-20T21:39:39.135Z,93.50
2018-08-20T21:42:07.259Z,93.60
2018-08-20T21:44:35.445Z,93.80
2018-08-20T21:47:14.976Z,94.00
2018-08-20T21:49:43.067Z,93.90
2018-08-20T21:52:12.139Z,94.00
2018-08-20T21:54:40.270Z,94.10
2018-08-20T21:57:08.455Z,94.10
2018-08-20T21:59:36.533Z,94.10
2018-08-20T22:02:04.730Z,94.20
2018-08-20T22:04:32.847Z,94.50
2018-08-20T22:07:01.042Z,94.70
2018-08-20T22:09:29.206Z,94.90
2018-08-20T22:11:58.202Z,95.10
2018-08-20T22:14:26.700Z,95.40
2018-08-20T22:16:54.902Z,95.50
2018-08-20T22:19:23.056Z,95.90
2018-08-20T22:21:51.301Z,96.10
2018-08-20T22:24:19.467Z,96.30
2018-08-20T22:26:53.200Z,96.40
2018-08-20T22:29:21.406Z,96.80
2018-08-20T22:31:55.582Z,97.40
2018-08-20T22:34:26.797Z,97.30
2018-08-20T22:36:59.495Z,97.20
2018-08-20T22:39:27.630Z,97.20
2018-08-20T22:41:55.813Z,97.10
2018-08-20T22:44:24.000Z,97.00
2018-08-20T22:46:52.229Z,97.00
2018-08-20T22:49:20.404Z,97.30
2018-08-20T22:51:48.557Z,97.30
2018-08-20T22:54:16.787Z,97.40
2018-08-20T22:56:44.954Z,97.50
2018-08-20T22:59:13.419Z,97.40
2018-08-20T23:01:41.560Z,97.50
2018-08-20T23:04:10.547Z,97.60
2018-08-20T23:06:38.722Z,97.70
2018-08-20T23:09:24.170Z,97.80
2018-08-20T23:11:52.861Z,97.90
2018-08-20T23:14:21.053Z,98.20
2018-08-20T23:16:50.513Z,98.30
2018-08-20T23:19:18.959Z,98.50
2018-08-20T23:21:47.985Z,98.70
2018-08-20T23:24:16.990Z,98.80
2018-08-20T23:26:45.166Z,99.20
2018-08-20T23:29:13.350Z,99.30
2018-08-20T23:31:41.813Z,99.50
2018-08-20T23:34:12.049Z,99.70
2018-08-20T23:36:40.806Z,99.70
2018-08-20T23:39:13.916Z,99.70
2018-08-20T23:41:42.090Z,99.70
2018-08-20T23:44:10.328Z,99.70
2018-08-20T23:46:43.870Z,99.60
2018-08-20T23:49:12.146Z,99.80
2018-08-20T23:51:40.373Z,99.80
2018-08-20T23:54:09.470Z,99.80
2018-08-20T23:56:37.663Z,99.60
2018-08-20T23:59:06.993Z,99.90
